sensor_id;sensor_type;location;lat;lon;timestamp;P1;durP1;ratioP1;P2;durP2;ratioP2
48881;SDS011;57063;51.406;-2.402;2024-01-15T00:02:06;2.60;;;1.10;;
48881;SDS011;57063;51.406;-2.402;2024-01-15T00:04:35;4.45;;;1.63;;
48881;SDS011;57063;51.406;-2.402;2024-01-15T00:07:04;2.50;;;1.15;;
48881;SDS011;57063;51.406;-2.402;2024-01-15T00:09:30;2.45;;;0.80;;
48881;SDS011;57063;51.406;-2.402;2024-01-15T00:11:56;3.08;;;0.70;;
48881;SDS011;57063;51.406;-2.402;2024-01-15T00:14:22;4.20;;;1.10;;
48881;SDS011;57063;51.406;-2.402;2024-01-15T00:16:47;3.53;;;0.75;;
48881;SDS011;57063;51.406;-2.402;2024-01-15T00:19:15;2.50;;;0.73;;
48881;SDS011;57063;51.406;-2.402;2024-01-15T00:21:41;3.22;;;0.90;;
48881;SDS011;57063;51.406;-2.402;2024-01-15T00:24:06;3.33;;;1.08;;
48881;SDS011;57063;51.406;-2.402;2024-01-15T00:26:31;2.83;;;1.23;;
48881;SDS011;57063;51.406;-2.402;2024-01-15T00:28:57;3.80;;;1.00;;
48881;SDS011;57063;51.406;-2.402;2024-01-15T00:31:22;3.35;;;1.02;;
48881;SDS011;57063;51.406;-2.402;2024-01-15T00:33:47;2.75;;;0.75;;
48881;SDS011;57063;51.406;-2.402;2024-01-15T00:36:13;1.77;;;0.57;;
48881;SDS011;57063;51.406;-2.402;2024-01-15T00:38:39;3.10;;;0.70;;
48881;SDS011;57063;51.406;-2.402;2024-01-15T00:41:04;2.97;;;0.90;;
48881;SDS011;57063;51.406;-2.402;2024-01-15T00:43:30;4.00;;;1.00;;
48881;SDS011;57063;51.406;-2.402;2024-01-15T00:45:55;1.88;;;0.90;;
48881;SDS011;57063;51.406;-2.402;2024-01-15T00:48:20;1.15;;;0.75;;
48881;SDS011;57063;51.406;-2.402;2024-01-15T00:50:46;2.65;;;0.80;;
48881;SDS011;57063;51.406;-2.402;2024-01-15T00:53:11;3.05;;;0.95;;
48881;SDS011;57063;51.406;-2.402;2024-01-15T00:55:37;4.28;;;0.93;;
48881;SDS011;57063;51.406;-2.402;2024-01-15T00:58:02;2.38;;;0.82;;
48881;SDS011;57063;51.406;-2.402;2024-01-15T01:00:28;2.50;;;0.90;;
48881;SDS011;57063;51.406;-2.402;2024-01-15T01:02:54;2.88;;;0.93;;
48881;SDS011;57063;51.406;-2.402;2024-01-15T01:05:19;3.25;;;1.05;;
48881;SDS011;57063;51.406;-2.402;2024-01-15T01:07:44;3.70;;;1.00;;
48881;SDS011;57063;51.406;-2.402;2024-01-15T01:10:10;1.13;;;0.75;;
48881;SDS011;57063;51.406;-2.402;2024-01-15T01:12:35;1.33;;;0.70;;
48881;SDS011;57063;51.406;-2.402;2024-01-15T01:15:01;3.35;;;0.65;;
48881;SDS011;57063;51.406;-2.402;2024-01-15T01:17:27;2.08;;;0.70;;
48881;SDS011;57063;51.406;-2.402;2024-01-15T01:19:53;1.52;;;0.60;;
48881;SDS011;57063;51.406;-2.402;2024-01-15T01:22:18;4.00;;;0.82;;
48881;SDS011;57063;51.406;-2.402;2024-01-15T01:24:43;1.88;;;0.68;;
48881;SDS011;57063;51.406;-2.402;2024-01-15T01:27:09;3.03;;;0.60;;
48881;SDS011;57063;51.406;-2.402;2024-01-15T01:29:34;1.35;;;0.80;;
48881;SDS011;57063;51.406;-2.402;2024-01-15T01:32:00;6.13;;;0.77;;
48881;SDS011;57063;51.406;-2.402;2024-01-15T01:34:25;1.55;;;0.80;;
48881;SDS011;57063;51.406;-2.402;2024-01-15T01:36:51;3.60;;;1.42;;
48881;SDS011;57063;51.406;-2.402;2024-01-15T01:39:16;1.20;;;0.57;;
48881;SDS011;57063;51.406;-2.402;2024-01-15T01:41:42;1.45;;;0.90;;
48881;SDS011;57063;51.406;-2.402;2024-01-15T01:44:07;2.35;;;0.60;;
48881;SDS011;57063;51.406;-2.402;2024-01-15T01:46:33;9.57;;;2.88;;
48881;SDS011;57063;51.406;-2.402;2024-01-15T01:49:04;8.23;;;1.38;;
48881;SDS011;57063;51.406;-2.402;2024-01-15T01:51:31;1.00;;;0.50;;
48881;SDS011;57063;51.406;-2.402;2024-01-15T01:53:58;2.22;;;0.65;;
48881;SDS011;57063;51.406;-2.402;2024-01-15T01:56:23;4.40;;;1.05;;
48881;SDS011;57063;51.406;-2.402;2024-01-15T01:58:49;2.17;;;0.50;;
48881;SDS011;57063;51.406;-2.402;2024-01-15T02:01:15;3.83;;;0.95;;
48881;SDS011;57063;51.406;-2.402;2024-01-15T02:03:41;2.88;;;0.70;;
48881;SDS011;57063;51.406;-2.402;2024-01-15T02:06:08;1.77;;;0.70;;
48881;SDS011;57063;51.406;-2.402;2024-01-15T02:08:33;1.15;;;0.45;;
48881;SDS011;57063;51.406;-2.402;2024-01-15T02:10:59;3.28;;;0.52;;
48881;SDS011;57063;51.406;-2.402;2024-01-15T02:13:25;0.93;;;0.30;;
48881;SDS011;57063;51.406;-2.402;2024-01-15T02:15:50;0.93;;;0.50;;
48881;SDS011;57063;51.406;-2.402;2024-01-15T02:18:15;4.57;;;0.60;;
48881;SDS011;57063;51.406;-2.402;2024-01-15T02:20:41;1.25;;;0.50;;
48881;SDS011;57063;51.406;-2.402;2024-01-15T02:25:31;2.35;;;0.35;;
48881;SDS011;57063;51.406;-2.402;2024-01-15T02:27:57;1.08;;;0.30;;
48881;SDS011;57063;51.406;-2.402;2024-01-15T02:30:23;4.57;;;1.15;;
48881;SDS011;57063;51.406;-2.402;2024-01-15T02:32:50;4.30;;;0.35;;
48881;SDS011;57063;51.406;-2.402;2024-01-15T02:35:16;1.85;;;0.30;;
48881;SDS011;57063;51.406;-2.402;2024-01-15T02:37:41;1.35;;;0.68;;
48881;SDS011;57063;51.406;-2.402;2024-01-15T02:40:07;1.95;;;0.38;;
48881;SDS011;57063;51.406;-2.402;2024-01-15T02:42:33;2.90;;;0.38;;
48881;SDS011;57063;51.406;-2.402;2024-01-15T02:44:58;2.88;;;0.38;;
48881;SDS011;57063;51.406;-2.402;2024-01-15T02:47:23;3.75;;;0.50;;
48881;SDS011;57063;51.406;-2.402;2024-01-15T02:49:49;1.17;;;0.40;;
48881;SDS011;57063;51.406;-2.402;2024-01-15T02:52:14;1.00;;;0.25;;
48881;SDS011;57063;51.406;-2.402;2024-01-15T02:54:39;1.73;;;0.77;;
48881;SDS011;57063;51.406;-2.402;2024-01-15T02:57:05;2.88;;;0.30;;
48881;SDS011;57063;51.406;-2.402;2024-01-15T02:59:30;1.23;;;0.28;;
48881;SDS011;57063;51.406;-2.402;2024-01-15T03:01:55;1.73;;;0.55;;
48881;SDS011;57063;51.406;-2.402;2024-01-15T03:04:21;2.42;;;0.45;;
48881;SDS011;57063;51.406;-2.402;2024-01-15T03:06:46;0.93;;;0.40;;
48881;SDS011;57063;51.406;-2.402;2024-01-15T03:09:11;2.00;;;0.50;;
48881;SDS011;57063;51.406;-2.402;2024-01-15T03:11:37;1.63;;;0.82;;
48881;SDS011;57063;51.406;-2.402;2024-01-15T03:14:04;0.95;;;0.32;;
48881;SDS011;57063;51.406;-2.402;2024-01-15T03:16:29;2.35;;;0.57;;
48881;SDS011;57063;51.406;-2.402;2024-01-15T03:18:54;4.20;;;0.60;;
48881;SDS011;57063;51.406;-2.402;2024-01-15T03:21:20;2.90;;;0.73;;
48881;SDS011;57063;51.406;-2.402;2024-01-15T03:23:45;0.93;;;0.40;;
48881;SDS011;57063;51.406;-2.402;2024-01-15T03:26:10;4.75;;;0.65;;
48881;SDS011;57063;51.406;-2.402;2024-01-15T03:28:36;2.80;;;0.68;;
48881;SDS011;57063;51.406;-2.402;2024-01-15T03:31:01;4.47;;;0.70;;
48881;SDS011;57063;51.406;-2.402;2024-01-15T03:33:27;2.58;;;0.47;;
48881;SDS011;57063;51.406;-2.402;2024-01-15T03:35:52;2.15;;;0.60;;
48881;SDS011;57063;51.406;-2.402;2024-01-15T03:38:18;2.63;;;0.40;;
48881;SDS011;57063;51.406;-2.402;2024-01-15T03:40:43;2.53;;;0.50;;
48881;SDS011;57063;51.406;-2.402;2024-01-15T03:43:08;2.75;;;0.70;;
48881;SDS011;57063;51.406;-2.402;2024-01-15T03:45:34;3.45;;;0.70;;
48881;SDS011;57063;51.406;-2.402;2024-01-15T03:47:59;4.50;;;0.60;;
48881;SDS011;57063;51.406;-2.402;2024-01-15T03:50:24;1.38;;;0.60;;
48881;SDS011;57063;51.406;-2.402;2024-01-15T03:52:50;3.20;;;0.60;;
48881;SDS011;57063;51.406;-2.402;2024-01-15T03:55:15;1.48;;;0.73;;
48881;SDS011;57063;51.406;-2.402;2024-01-15T03:57:41;0.90;;;0.43;;
48881;SDS011;57063;51.406;-2.402;2024-01-15T04:00:06;2.00;;;0.60;;
48881;SDS011;57063;51.406;-2.402;2024-01-15T04:02:32;1.55;;;0.50;;
48881;SDS011;57063;51.406;-2.402;2024-01-15T04:04:58;2.75;;;0.68;;
48881;SDS011;57063;51.406;-2.402;2024-01-15T04:07:23;5.50;;;0.50;;
48881;SDS011;57063;51.406;-2.402;2024-01-15T04:09:48;3.65;;;0.90;;
48881;SDS011;57063;51.406;-2.402;2024-01-15T04:12:14;3.88;;;0.40;;
48881;SDS011;57063;51.406;-2.402;2024-01-15T04:14:39;4.32;;;0.60;;
48881;SDS011;57063;51.406;-2.402;2024-01-15T04:17:04;3.10;;;0.90;;
48881;SDS011;57063;51.406;-2.402;2024-01-15T04:19:30;2.47;;;1.00;;
48881;SDS011;57063;51.406;-2.402;2024-01-15T04:21:55;4.10;;;1.33;;
48881;SDS011;57063;51.406;-2.402;2024-01-15T04:24:20;8.75;;;1.60;;
48881;SDS011;57063;51.406;-2.402;2024-01-15T04:26:46;5.50;;;1.95;;
48881;SDS011;57063;51.406;-2.402;2024-01-15T04:29:12;11.63;;;2.65;;
48881;SDS011;57063;51.406;-2.402;2024-01-15T04:31:37;11.80;;;3.88;;
48881;SDS011;57063;51.406;-2.402;2024-01-15T04:34:03;7.30;;;3.40;;
48881;SDS011;57063;51.406;-2.402;2024-01-15T04:36:28;10.68;;;3.95;;
48881;SDS011;57063;51.406;-2.402;2024-01-15T04:38:53;7.47;;;3.20;;
48881;SDS011;57063;51.406;-2.402;2024-01-15T04:41:19;10.63;;;2.88;;
48881;SDS011;57063;51.406;-2.402;2024-01-15T04:43:44;7.32;;;2.97;;
48881;SDS011;57063;51.406;-2.402;2024-01-15T04:46:09;5.50;;;1.90;;
48881;SDS011;57063;51.406;-2.402;2024-01-15T04:48:35;6.55;;;3.38;;
48881;SDS011;57063;51.406;-2.402;2024-01-15T04:51:00;3.92;;;2.22;;
48881;SDS011;57063;51.406;-2.402;2024-01-15T04:53:26;6.45;;;2.40;;
48881;SDS011;57063;51.406;-2.402;2024-01-15T04:55:51;3.47;;;1.75;;
48881;SDS011;57063;51.406;-2.402;2024-01-15T04:58:17;5.93;;;2.35;;
48881;SDS011;57063;51.406;-2.402;2024-01-15T05:00:42;6.78;;;2.60;;
48881;SDS011;57063;51.406;-2.402;2024-01-15T05:03:07;3.97;;;1.70;;
48881;SDS011;57063;51.406;-2.402;2024-01-15T05:05:33;3.83;;;1.02;;
48881;SDS011;57063;51.406;-2.402;2024-01-15T05:07:58;4.07;;;1.38;;
48881;SDS011;57063;51.406;-2.402;2024-01-15T05:10:23;6.13;;;1.15;;
48881;SDS011;57063;51.406;-2.402;2024-01-15T05:12:49;4.55;;;1.33;;
48881;SDS011;57063;51.406;-2.402;2024-01-15T05:15:14;3.50;;;1.13;;
48881;SDS011;57063;51.406;-2.402;2024-01-15T05:17:39;4.57;;;0.95;;
48881;SDS011;57063;51.406;-2.402;2024-01-15T05:20:05;2.00;;;0.90;;
48881;SDS011;57063;51.406;-2.402;2024-01-15T05:22:31;1.63;;;0.50;;
48881;SDS011;57063;51.406;-2.402;2024-01-15T05:24:56;5.30;;;1.75;;
48881;SDS011;57063;51.406;-2.402;2024-01-15T05:27:21;5.30;;;1.00;;
48881;SDS011;57063;51.406;-2.402;2024-01-15T05:29:47;2.60;;;0.90;;
48881;SDS011;57063;51.406;-2.402;2024-01-15T05:32:12;2.03;;;0.73;;
48881;SDS011;57063;51.406;-2.402;2024-01-15T05:34:37;3.67;;;1.00;;
48881;SDS011;57063;51.406;-2.402;2024-01-15T05:37:03;2.22;;;0.70;;
48881;SDS011;57063;51.406;-2.402;2024-01-15T05:39:28;3.85;;;0.68;;
48881;SDS011;57063;51.406;-2.402;2024-01-15T05:41:53;1.48;;;0.40;;
48881;SDS011;57063;51.406;-2.402;2024-01-15T05:44:19;0.73;;;0.40;;
48881;SDS011;57063;51.406;-2.402;2024-01-15T05:46:44;1.98;;;0.75;;
48881;SDS011;57063;51.406;-2.402;2024-01-15T05:49:09;1.30;;;0.68;;
48881;SDS011;57063;51.406;-2.402;2024-01-15T05:51:35;1.65;;;0.73;;
48881;SDS011;57063;51.406;-2.402;2024-01-15T05:54:00;2.83;;;0.60;;
48881;SDS011;57063;51.406;-2.402;2024-01-15T05:56:26;4.82;;;0.63;;
48881;SDS011;57063;51.406;-2.402;2024-01-15T05:58:51;4.13;;;1.13;;
48881;SDS011;57063;51.406;-2.402;2024-01-15T06:01:17;7.00;;;0.70;;
48881;SDS011;57063;51.406;-2.402;2024-01-15T06:03:42;2.17;;;1.63;;
48881;SDS011;57063;51.406;-2.402;2024-01-15T06:06:08;0.85;;;0.43;;
48881;SDS011;57063;51.406;-2.402;2024-01-15T06:08:34;3.67;;;1.42;;
48881;SDS011;57063;51.406;-2.402;2024-01-15T06:10:59;1.73;;;0.40;;
48881;SDS011;57063;51.406;-2.402;2024-01-15T06:13:25;2.53;;;0.60;;
48881;SDS011;57063;51.406;-2.402;2024-01-15T06:15:50;1.42;;;0.40;;
48881;SDS011;57063;51.406;-2.402;2024-01-15T06:18:16;6.88;;;0.52;;
48881;SDS011;57063;51.406;-2.402;2024-01-15T06:20:41;4.35;;;0.50;;
48881;SDS011;57063;51.406;-2.402;2024-01-15T06:23:06;2.28;;;0.70;;
48881;SDS011;57063;51.406;-2.402;2024-01-15T06:25:32;1.48;;;0.40;;
48881;SDS011;57063;51.406;-2.402;2024-01-15T06:27:57;3.72;;;0.43;;
48881;SDS011;57063;51.406;-2.402;2024-01-15T06:30:22;1.10;;;0.47;;
48881;SDS011;57063;51.406;-2.402;2024-01-15T06:32:48;2.38;;;0.30;;
48881;SDS011;57063;51.406;-2.402;2024-01-15T06:35:13;5.70;;;0.82;;
48881;SDS011;57063;51.406;-2.402;2024-01-15T06:37:39;1.35;;;0.60;;
48881;SDS011;57063;51.406;-2.402;2024-01-15T06:40:04;3.67;;;0.65;;
48881;SDS011;57063;51.406;-2.402;2024-01-15T06:42:31;0.60;;;0.40;;
48881;SDS011;57063;51.406;-2.402;2024-01-15T06:44:56;2.75;;;0.60;;
48881;SDS011;57063;51.406;-2.402;2024-01-15T06:47:21;2.70;;;0.50;;
48881;SDS011;57063;51.406;-2.402;2024-01-15T06:49:47;4.68;;;0.40;;
48881;SDS011;57063;51.406;-2.402;2024-01-15T06:52:12;1.67;;;0.30;;
48881;SDS011;57063;51.406;-2.402;2024-01-15T06:54:37;1.50;;;0.45;;
48881;SDS011;57063;51.406;-2.402;2024-01-15T06:57:03;1.33;;;0.50;;
48881;SDS011;57063;51.406;-2.402;2024-01-15T06:59:29;2.10;;;0.43;;
48881;SDS011;57063;51.406;-2.402;2024-01-15T07:01:54;3.90;;;0.70;;
48881;SDS011;57063;51.406;-2.402;2024-01-15T07:04:20;3.70;;;1.23;;
48881;SDS011;57063;51.406;-2.402;2024-01-15T07:06:45;4.13;;;0.65;;
48881;SDS011;57063;51.406;-2.402;2024-01-15T07:09:13;6.00;;;0.70;;
48881;SDS011;57063;51.406;-2.402;2024-01-15T07:11:38;5.53;;;1.00;;
48881;SDS011;57063;51.406;-2.402;2024-01-15T07:14:03;6.03;;;0.60;;
48881;SDS011;57063;51.406;-2.402;2024-01-15T07:16:29;4.20;;;0.60;;
48881;SDS011;57063;51.406;-2.402;2024-01-15T07:18:54;1.92;;;0.43;;
48881;SDS011;57063;51.406;-2.402;2024-01-15T07:21:19;4.93;;;0.75;;
48881;SDS011;57063;51.406;-2.402;2024-01-15T07:23:45;3.22;;;0.80;;
48881;SDS011;57063;51.406;-2.402;2024-01-15T07:26:10;3.10;;;0.60;;
48881;SDS011;57063;51.406;-2.402;2024-01-15T07:28:35;1.63;;;0.40;;
48881;SDS011;57063;51.406;-2.402;2024-01-15T07:31:01;2.28;;;0.57;;
48881;SDS011;57063;51.406;-2.402;2024-01-15T07:33:26;5.03;;;0.68;;
48881;SDS011;57063;51.406;-2.402;2024-01-15T07:35:52;2.42;;;0.70;;
48881;SDS011;57063;51.406;-2.402;2024-01-15T07:38:17;4.65;;;0.70;;
48881;SDS011;57063;51.406;-2.402;2024-01-15T07:40:42;4.75;;;0.70;;
48881;SDS011;57063;51.406;-2.402;2024-01-15T07:43:08;3.47;;;1.30;;
48881;SDS011;57063;51.406;-2.402;2024-01-15T07:45:33;2.47;;;0.52;;
48881;SDS011;57063;51.406;-2.402;2024-01-15T07:47:58;7.30;;;0.68;;
48881;SDS011;57063;51.406;-2.402;2024-01-15T07:50:24;2.63;;;0.52;;
48881;SDS011;57063;51.406;-2.402;2024-01-15T07:52:49;1.80;;;0.50;;
48881;SDS011;57063;51.406;-2.402;2024-01-15T07:55:14;2.65;;;0.80;;
48881;SDS011;57063;51.406;-2.402;2024-01-15T07:57:40;2.60;;;0.70;;
48881;SDS011;57063;51.406;-2.402;2024-01-15T08:00:07;0.95;;;0.50;;
48881;SDS011;57063;51.406;-2.402;2024-01-15T08:02:34;2.03;;;0.60;;
48881;SDS011;57063;51.406;-2.402;2024-01-15T08:04:59;1.15;;;0.85;;
48881;SDS011;57063;51.406;-2.402;2024-01-15T08:07:25;2.25;;;0.70;;
48881;SDS011;57063;51.406;-2.402;2024-01-15T08:09:51;3.00;;;0.80;;
48881;SDS011;57063;51.406;-2.402;2024-01-15T08:12:17;1.48;;;0.88;;
48881;SDS011;57063;51.406;-2.402;2024-01-15T08:14:42;3.97;;;1.00;;
48881;SDS011;57063;51.406;-2.402;2024-01-15T08:17:07;4.13;;;0.70;;
48881;SDS011;57063;51.406;-2.402;2024-01-15T08:19:33;2.10;;;0.77;;
48881;SDS011;57063;51.406;-2.402;2024-01-15T08:21:58;2.25;;;0.77;;
48881;SDS011;57063;51.406;-2.402;2024-01-15T08:24:24;6.50;;;0.80;;
48881;SDS011;57063;51.406;-2.402;2024-01-15T08:26:49;4.35;;;0.93;;
48881;SDS011;57063;51.406;-2.402;2024-01-15T08:29:14;2.58;;;0.80;;
48881;SDS011;57063;51.406;-2.402;2024-01-15T08:31:41;2.42;;;0.77;;
48881;SDS011;57063;51.406;-2.402;2024-01-15T08:34:06;3.80;;;0.75;;
48881;SDS011;57063;51.406;-2.402;2024-01-15T08:36:31;3.17;;;0.98;;
48881;SDS011;57063;51.406;-2.402;2024-01-15T08:38:57;2.92;;;1.55;;
48881;SDS011;57063;51.406;-2.402;2024-01-15T08:41:23;3.55;;;0.50;;
48881;SDS011;57063;51.406;-2.402;2024-01-15T08:43:49;1.95;;;0.90;;
48881;SDS011;57063;51.406;-2.402;2024-01-15T08:46:14;2.90;;;1.17;;
48881;SDS011;57063;51.406;-2.402;2024-01-15T08:48:40;4.68;;;1.55;;
48881;SDS011;57063;51.406;-2.402;2024-01-15T08:51:05;7.90;;;1.92;;
48881;SDS011;57063;51.406;-2.402;2024-01-15T08:53:31;8.52;;;2.25;;
48881;SDS011;57063;51.406;-2.402;2024-01-15T08:55:57;14.02;;;4.63;;
48881;SDS011;57063;51.406;-2.402;2024-01-15T08:58:23;10.43;;;3.65;;
48881;SDS011;57063;51.406;-2.402;2024-01-15T09:00:49;8.73;;;3.10;;
48881;SDS011;57063;51.406;-2.402;2024-01-15T09:03:15;4.10;;;1.40;;
48881;SDS011;57063;51.406;-2.402;2024-01-15T09:05:41;5.53;;;1.13;;
48881;SDS011;57063;51.406;-2.402;2024-01-15T09:08:07;4.30;;;1.20;;
48881;SDS011;57063;51.406;-2.402;2024-01-15T09:10:33;9.25;;;1.15;;
48881;SDS011;57063;51.406;-2.402;2024-01-15T09:12:58;15.05;;;5.30;;
48881;SDS011;57063;51.406;-2.402;2024-01-15T09:15:23;15.82;;;5.93;;
48881;SDS011;57063;51.406;-2.402;2024-01-15T09:17:49;10.05;;;4.50;;
48881;SDS011;57063;51.406;-2.402;2024-01-15T09:20:14;6.95;;;3.85;;
48881;SDS011;57063;51.406;-2.402;2024-01-15T09:22:40;11.98;;;4.70;;
48881;SDS011;57063;51.406;-2.402;2024-01-15T09:25:09;7.85;;;3.40;;
48881;SDS011;57063;51.406;-2.402;2024-01-15T09:27:35;8.02;;;2.83;;
48881;SDS011;57063;51.406;-2.402;2024-01-15T09:30:01;4.20;;;2.03;;
48881;SDS011;57063;51.406;-2.402;2024-01-15T09:32:27;4.40;;;1.30;;
48881;SDS011;57063;51.406;-2.402;2024-01-15T09:34:53;9.63;;;1.52;;
48881;SDS011;57063;51.406;-2.402;2024-01-15T09:37:21;1.77;;;0.70;;
48881;SDS011;57063;51.406;-2.402;2024-01-15T09:39:46;5.70;;;0.75;;
48881;SDS011;57063;51.406;-2.402;2024-01-15T09:42:13;3.38;;;0.90;;
48881;SDS011;57063;51.406;-2.402;2024-01-15T09:44:39;4.53;;;0.90;;
48881;SDS011;57063;51.406;-2.402;2024-01-15T09:47:04;4.40;;;0.98;;
48881;SDS011;57063;51.406;-2.402;2024-01-15T09:49:30;5.68;;;0.80;;
48881;SDS011;57063;51.406;-2.402;2024-01-15T09:51:56;3.17;;;1.15;;
48881;SDS011;57063;51.406;-2.402;2024-01-15T09:54:23;3.47;;;1.00;;
48881;SDS011;57063;51.406;-2.402;2024-01-15T09:56:48;8.57;;;1.98;;
48881;SDS011;57063;51.406;-2.402;2024-01-15T09:59:17;5.03;;;1.05;;
48881;SDS011;57063;51.406;-2.402;2024-01-15T10:01:43;2.58;;;0.88;;
48881;SDS011;57063;51.406;-2.402;2024-01-15T10:04:10;5.15;;;1.13;;
48881;SDS011;57063;51.406;-2.402;2024-01-15T10:06:38;3.90;;;1.20;;
48881;SDS011;57063;51.406;-2.402;2024-01-15T10:09:07;3.30;;;1.08;;
48881;SDS011;57063;51.406;-2.402;2024-01-15T10:11:33;5.20;;;1.00;;
48881;SDS011;57063;51.406;-2.402;2024-01-15T10:13:58;3.42;;;1.45;;
48881;SDS011;57063;51.406;-2.402;2024-01-15T10:16:25;4.25;;;1.23;;
48881;SDS011;57063;51.406;-2.402;2024-01-15T10:18:50;9.98;;;0.93;;
48881;SDS011;57063;51.406;-2.402;2024-01-15T10:21:16;4.88;;;1.15;;
48881;SDS011;57063;51.406;-2.402;2024-01-15T10:23:41;3.42;;;0.82;;
48881;SDS011;57063;51.406;-2.402;2024-01-15T10:26:07;7.18;;;2.47;;
48881;SDS011;57063;51.406;-2.402;2024-01-15T10:28:32;1.17;;;0.60;;
48881;SDS011;57063;51.406;-2.402;2024-01-15T10:30:58;1.95;;;0.90;;
48881;SDS011;57063;51.406;-2.402;2024-01-15T10:33:25;2.97;;;0.98;;
48881;SDS011;57063;51.406;-2.402;2024-01-15T10:35:51;3.58;;;0.88;;
48881;SDS011;57063;51.406;-2.402;2024-01-15T10:38:22;1.73;;;0.65;;
48881;SDS011;57063;51.406;-2.402;2024-01-15T10:40:51;4.88;;;0.93;;
48881;SDS011;57063;51.406;-2.402;2024-01-15T10:43:18;2.42;;;1.73;;
48881;SDS011;57063;51.406;-2.402;2024-01-15T10:45:46;6.05;;;1.13;;
48881;SDS011;57063;51.406;-2.402;2024-01-15T10:48:13;2.45;;;0.77;;
48881;SDS011;57063;51.406;-2.402;2024-01-15T10:50:39;3.78;;;0.80;;
48881;SDS011;57063;51.406;-2.402;2024-01-15T10:53:05;6.43;;;1.10;;
48881;SDS011;57063;51.406;-2.402;2024-01-15T10:55:31;2.67;;;0.95;;
48881;SDS011;57063;51.406;-2.402;2024-01-15T10:57:57;3.78;;;0.85;;
48881;SDS011;57063;51.406;-2.402;2024-01-15T11:00:22;5.25;;;0.70;;
48881;SDS011;57063;51.406;-2.402;2024-01-15T11:02:50;1.88;;;0.50;;
48881;SDS011;57063;51.406;-2.402;2024-01-15T11:05:16;2.33;;;0.50;;
48881;SDS011;57063;51.406;-2.402;2024-01-15T11:07:47;2.97;;;0.60;;
48881;SDS011;57063;51.406;-2.402;2024-01-15T11:13:04;1.88;;;0.60;;
48881;SDS011;57063;51.406;-2.402;2024-01-15T11:15:30;2.72;;;0.68;;
48881;SDS011;57063;51.406;-2.402;2024-01-15T11:17:59;3.75;;;0.63;;
48881;SDS011;57063;51.406;-2.402;2024-01-15T11:20:30;1.85;;;0.47;;
48881;SDS011;57063;51.406;-2.402;2024-01-15T11:22:57;4.53;;;0.55;;
48881;SDS011;57063;51.406;-2.402;2024-01-15T11:25:24;1.20;;;0.52;;
48881;SDS011;57063;51.406;-2.402;2024-01-15T11:27:59;2.95;;;0.70;;
48881;SDS011;57063;51.406;-2.402;2024-01-15T11:30:25;2.47;;;0.60;;
48881;SDS011;57063;51.406;-2.402;2024-01-15T11:32:51;2.63;;;0.40;;
48881;SDS011;57063;51.406;-2.402;2024-01-15T11:35:16;5.28;;;0.30;;
48881;SDS011;57063;51.406;-2.402;2024-01-15T11:40:19;2.08;;;0.50;;
48881;SDS011;57063;51.406;-2.402;2024-01-15T11:43:02;2.03;;;0.30;;
48881;SDS011;57063;51.406;-2.402;2024-01-15T11:45:27;3.03;;;0.32;;
48881;SDS011;57063;51.406;-2.402;2024-01-15T11:50:44;1.75;;;0.40;;
48881;SDS011;57063;51.406;-2.402;2024-01-15T11:55:45;2.17;;;0.40;;
48881;SDS011;57063;51.406;-2.402;2024-01-15T11:58:11;1.35;;;0.50;;
48881;SDS011;57063;51.406;-2.402;2024-01-15T12:00:40;1.38;;;0.40;;
48881;SDS011;57063;51.406;-2.402;2024-01-15T12:03:07;3.08;;;0.90;;
48881;SDS011;57063;51.406;-2.402;2024-01-15T12:05:36;1.42;;;0.40;;
48881;SDS011;57063;51.406;-2.402;2024-01-15T12:08:06;2.13;;;0.50;;
48881;SDS011;57063;51.406;-2.402;2024-01-15T12:10:38;1.95;;;0.35;;
48881;SDS011;57063;51.406;-2.402;2024-01-15T12:13:14;10.57;;;0.88;;
48881;SDS011;57063;51.406;-2.402;2024-01-15T12:15:41;2.08;;;0.45;;
48881;SDS011;57063;51.406;-2.402;2024-01-15T12:18:10;2.30;;;0.40;;
48881;SDS011;57063;51.406;-2.402;2024-01-15T12:20:45;2.85;;;0.60;;
48881;SDS011;57063;51.406;-2.402;2024-01-15T12:23:14;5.57;;;0.43;;
48881;SDS011;57063;51.406;-2.402;2024-01-15T12:25:40;1.48;;;0.45;;
48881;SDS011;57063;51.406;-2.402;2024-01-15T12:28:05;2.13;;;0.68;;
48881;SDS011;57063;51.406;-2.402;2024-01-15T12:30:32;1.85;;;0.50;;
48881;SDS011;57063;51.406;-2.402;2024-01-15T12:33:02;4.80;;;0.43;;
48881;SDS011;57063;51.406;-2.402;2024-01-15T12:35:31;3.50;;;0.85;;
48881;SDS011;57063;51.406;-2.402;2024-01-15T12:37:59;2.67;;;0.70;;
48881;SDS011;57063;51.406;-2.402;2024-01-15T12:40:27;2.72;;;1.20;;
48881;SDS011;57063;51.406;-2.402;2024-01-15T12:42:52;3.60;;;1.00;;
48881;SDS011;57063;51.406;-2.402;2024-01-15T12:45:18;4.03;;;1.70;;
48881;SDS011;57063;51.406;-2.402;2024-01-15T12:47:43;5.45;;;1.95;;
48881;SDS011;57063;51.406;-2.402;2024-01-15T12:50:09;4.38;;;1.42;;
48881;SDS011;57063;51.406;-2.402;2024-01-15T12:52:35;3.35;;;1.48;;
48881;SDS011;57063;51.406;-2.402;2024-01-15T12:55:03;6.97;;;3.05;;
48881;SDS011;57063;51.406;-2.402;2024-01-15T12:57:30;6.90;;;2.60;;
48881;SDS011;57063;51.406;-2.402;2024-01-15T12:59:55;7.80;;;1.95;;
48881;SDS011;57063;51.406;-2.402;2024-01-15T13:02:21;4.25;;;2.00;;
48881;SDS011;57063;51.406;-2.402;2024-01-15T13:04:46;4.43;;;1.83;;
48881;SDS011;57063;51.406;-2.402;2024-01-15T13:07:12;4.47;;;2.10;;
48881;SDS011;57063;51.406;-2.402;2024-01-15T13:09:38;3.90;;;1.30;;
48881;SDS011;57063;51.406;-2.402;2024-01-15T13:12:03;3.33;;;0.80;;
48881;SDS011;57063;51.406;-2.402;2024-01-15T13:14:30;5.80;;;0.88;;
48881;SDS011;57063;51.406;-2.402;2024-01-15T13:16:56;3.38;;;0.85;;
48881;SDS011;57063;51.406;-2.402;2024-01-15T13:19:22;3.67;;;0.93;;
48881;SDS011;57063;51.406;-2.402;2024-01-15T13:21:48;4.10;;;0.70;;
48881;SDS011;57063;51.406;-2.402;2024-01-15T13:24:14;1.90;;;0.82;;
48881;SDS011;57063;51.406;-2.402;2024-01-15T13:26:39;2.00;;;0.40;;
48881;SDS011;57063;51.406;-2.402;2024-01-15T13:29:05;3.00;;;0.52;;
48881;SDS011;57063;51.406;-2.402;2024-01-15T13:31:31;1.90;;;0.43;;
48881;SDS011;57063;51.406;-2.402;2024-01-15T13:33:57;1.23;;;0.30;;
48881;SDS011;57063;51.406;-2.402;2024-01-15T13:36:23;3.17;;;0.60;;
48881;SDS011;57063;51.406;-2.402;2024-01-15T13:38:50;2.97;;;0.65;;
48881;SDS011;57063;51.406;-2.402;2024-01-15T13:41:16;2.47;;;0.70;;
48881;SDS011;57063;51.406;-2.402;2024-01-15T13:43:44;3.90;;;1.08;;
48881;SDS011;57063;51.406;-2.402;2024-01-15T13:46:19;2.40;;;0.75;;
48881;SDS011;57063;51.406;-2.402;2024-01-15T13:48:46;1.90;;;0.70;;
48881;SDS011;57063;51.406;-2.402;2024-01-15T13:51:12;2.20;;;0.43;;
48881;SDS011;57063;51.406;-2.402;2024-01-15T13:53:38;3.65;;;0.90;;
48881;SDS011;57063;51.406;-2.402;2024-01-15T13:56:04;3.08;;;0.70;;
48881;SDS011;57063;51.406;-2.402;2024-01-15T13:58:30;7.45;;;1.15;;
48881;SDS011;57063;51.406;-2.402;2024-01-15T14:00:56;2.78;;;0.50;;
48881;SDS011;57063;51.406;-2.402;2024-01-15T14:03:21;2.60;;;0.68;;
48881;SDS011;57063;51.406;-2.402;2024-01-15T14:05:47;4.22;;;0.75;;
48881;SDS011;57063;51.406;-2.402;2024-01-15T14:08:12;4.00;;;0.77;;
48881;SDS011;57063;51.406;-2.402;2024-01-15T14:10:38;5.38;;;0.68;;
48881;SDS011;57063;51.406;-2.402;2024-01-15T14:13:03;5.13;;;0.80;;
48881;SDS011;57063;51.406;-2.402;2024-01-15T14:15:28;1.50;;;0.43;;
48881;SDS011;57063;51.406;-2.402;2024-01-15T14:17:54;4.50;;;0.70;;
48881;SDS011;57063;51.406;-2.402;2024-01-15T14:20:19;4.80;;;0.60;;
48881;SDS011;57063;51.406;-2.402;2024-01-15T14:22:45;1.60;;;0.70;;
48881;SDS011;57063;51.406;-2.402;2024-01-15T14:25:10;3.25;;;0.60;;
48881;SDS011;57063;51.406;-2.402;2024-01-15T14:27:35;2.95;;;0.80;;
48881;SDS011;57063;51.406;-2.402;2024-01-15T14:30:01;11.85;;;1.15;;
48881;SDS011;57063;51.406;-2.402;2024-01-15T14:32:28;5.13;;;1.15;;
48881;SDS011;57063;51.406;-2.402;2024-01-15T14:34:53;5.43;;;0.50;;
48881;SDS011;57063;51.406;-2.402;2024-01-15T14:37:18;2.67;;;0.90;;
48881;SDS011;57063;51.406;-2.402;2024-01-15T14:39:44;2.05;;;0.77;;